Stations météo

réclame
Mon MeteoGroup
Carlsfeld, Allemagne (10574): Température de l'air & dewpoint: 11.12.2018 06:00:00 - 17.12.2018 06:00:00 (CET)Carlsfeld, Allemagne (10574): Température de l'air 5cm & Température de l'air -5cm: 11.12.2018 06:00:00 - 17.12.2018 06:00:00 (CET)Carlsfeld, Allemagne (10574): Température de l'air -20cm & Température de l'air -100cm: 11.12.2018 06:00:00 - 17.12.2018 06:00:00 (CET)Carlsfeld, Allemagne (10574): Vitesse du vent & gusts: 11.12.2018 06:00:00 - 17.12.2018 06:00:00 (CET)Carlsfeld, Allemagne (10574): Direction du vent: 11.12.2018 06:00:00 - 17.12.2018 06:00:00 (CET)Carlsfeld, Allemagne (10574): visibility: 11.12.2018 06:00:00 - 17.12.2018 06:00:00 (CET)Carlsfeld, Allemagne (10574): Ensoleillement: 11.12.2018 06:00:00 - 17.12.2018 06:00:00 (CET)Carlsfeld, Allemagne (10574): Quantités de précipitations: 11.12.2018 06:00:00 - 17.12.2018 06:00:00 (CET)
Date & Time tt [°C] td [°C] tt 5cm [°C] tt -5cm [°C] tt -20cm [°C] tt -100cm [°C] ff [km/h] ff [knt] fx [km/h] fx [knt] dd vv [km] sd [min] rr [mm]
17.12.2018 06:00:00 -2,5 -2,7 -1,5 0,3 1,1 4,3 2 1 11 6 SE 16 0 0,0
17.12.2018 05:00:00 -2,5 -3,0 -1,6 0,3 1,1 4,3 6 3 15 8 W 25 0 0,0
17.12.2018 04:00:00 -3,2 -3,6 -1,6 0,3 1,1 4,3 9 5 22 12 WSW 9 0 0,0
17.12.2018 03:00:00 -3,1 -3,7 -1,7 0,3 1,1 4,4 8 5 15 8 WSW 9 0 0,0
17.12.2018 02:00:00 -3,4 -3,7 -1,7 0,3 1,1 4,4 3 2 16 9 WSW 4,3 0 0,0
17.12.2018 01:00:00 - - - - - - - - - - - - - -
17.12.2018 00:00:00 -3,9 -4,5 -1,8 0,3 1,1 4,4 10 5 24 13 W 6 0 0,0
16.12.2018 23:00:00 -4,7 -5,3 -1,9 0,3 1,1 4,4 7 4 21 12 WSW 3,7 0 0,0
16.12.2018 22:00:00 -5,0 -5,6 -1,9 0,3 1,1 4,4 10 5 23 13 WSW 4,1 0 0,2
16.12.2018 21:00:00 -5,4 -6,1 -1,9 0,3 1,1 4,4 8 4 21 11 SW 1,9 0 0,2
16.12.2018 20:00:00 -5,8 -6,6 -1,9 0,3 1,1 4,4 10 6 26 14 SW 3,9 0 0,0
16.12.2018 19:00:00 -6,1 -6,7 -1,9 0,3 1,1 4,4 15 8 31 17 SW 2,8 0 0,0
16.12.2018 18:00:00 -6,2 -7,0 -1,9 0,3 1,1 4,4 15 8 32 18 SSW 2,4 0 0,0
16.12.2018 17:00:00 -6,4 -7,4 -1,9 0,3 1,1 4,4 13 7 26 14 SSW 2,3 0 0,0
16.12.2018 16:00:00 -6,5 -7,7 -1,9 0,3 1,1 4,4 7 4 25 13 SSW 5 0 0,2
16.12.2018 15:00:00 -6,4 -7,8 -1,8 0,3 1,1 4,4 14 8 32 18 SSW 1,9 0 0,1
16.12.2018 14:00:00 -6,5 -8,0 -1,9 0,3 1,1 4,4 13 7 29 16 SSW 12 0 0,0
16.12.2018 13:00:00 -6,6 -7,8 -1,9 0,3 1,1 4,4 8 4 23 12 SSW 15 0 0,0
16.12.2018 12:00:00 -7,1 -8,2 -1,9 0,3 1,1 4,4 12 6 35 19 S 9 0 0,0
16.12.2018 11:00:00 -7,3 -8,3 -1,9 0,3 1,1 4,4 14 8 37 20 S 7 0 0,0
16.12.2018 10:00:00 -7,2 -8,1 -2,0 0,3 1,1 4,4 16 8 41 22 S 4,9 0 0,0
16.12.2018 09:00:00 -7,4 -8,4 -2,0 0,3 1,1 4,4 21 12 39 21 S 6 0 0,0
16.12.2018 08:00:00 -7,2 -8,0 -2,0 0,3 1,1 4,4 17 9 39 21 SSE 2,4 0 0,0
16.12.2018 07:00:00 -7,3 -8,2 -2,0 0,3 1,1 4,4 18 10 41 22 S 6 0 0,0
16.12.2018 06:00:00 -7,2 -8,2 -2,0 0,3 1,1 4,4 11 6 32 17 S 8 0 0,0
16.12.2018 05:00:00 -7,0 -7,9 -2,0 0,3 1,1 4,4 11 6 32 17 S 8 0 0,0
16.12.2018 04:00:00 -6,9 -7,6 -2,0 0,3 1,1 4,4 12 6 27 14 SSE 3,5 0 0,0
16.12.2018 03:00:00 -6,8 -7,6 -2,0 0,3 1,1 4,4 12 7 27 15 S 5 0 0,0
16.12.2018 02:00:00 -6,7 -7,5 -2,1 0,3 1,1 4,4 14 7 23 12 SSE 5 0 0,0
16.12.2018 01:00:00 -6,6 -7,5 -2,1 0,3 1,1 4,4 9 5 22 12 SSE 6 0 0,0
16.12.2018 00:00:00 -6,5 -7,5 -2,1 0,3 1,1 4,4 9 5 24 13 SSE 8 0 0,0
15.12.2018 23:00:00 -6,4 -7,6 -2,1 0,3 1,1 4,4 9 5 22 12 S 8 0 0,0
15.12.2018 22:00:00 -6,2 -7,6 -2,1 0,3 1,1 4,4 12 7 19 11 SSE 11 0 0,0
15.12.2018 21:00:00 -6,5 -7,5 -2,1 0,3 1,1 4,4 4 2 10 5 ESE 6 0 0,0
15.12.2018 20:00:00 -6,6 -7,4 -2,0 0,3 1,1 4,4 4 2 8 4 SE 7 0 0,0
15.12.2018 19:00:00 -6,6 -7,5 -2,0 0,3 1,1 4,4 5 3 9 5 E 3,8 0 0,0
15.12.2018 18:00:00 -6,6 -7,4 -2,0 0,3 1,1 4,4 5 3 10 5 E 7 0 0,0
15.12.2018 17:00:00 -6,5 -7,5 -2,0 0,3 1,2 4,4 5 3 9 5 E 8 0 0,0
15.12.2018 16:00:00 -6,3 -7,2 -1,9 0,3 1,2 4,4 5 3 11 6 ENE 8 0 0,0
15.12.2018 15:00:00 -5,9 -7,2 -2,0 0,3 1,2 4,4 4 2 10 5 E 10 0 0,0
15.12.2018 14:00:00 -6,1 -7,4 -2,0 0,3 1,2 4,4 4 2 10 5 E 12 0 0,0
15.12.2018 13:00:00 -6,4 -7,3 -2,1 0,3 1,2 4,4 4 2 8 4 E 4,0 0 0,0
15.12.2018 12:00:00 -6,3 -7,2 -2,1 0,3 1,2 4,4 4 2 11 6 E 6 0 0,0
15.12.2018 11:00:00 -6,5 -7,5 -2,2 0,3 1,2 4,4 4 2 15 8 E 8 0 0,0
15.12.2018 10:00:00 -6,6 -8,0 -2,2 0,3 1,2 4,4 4 2 10 5 E 9 0 0,0
15.12.2018 09:00:00 -6,6 -7,9 -2,2 0,3 1,2 4,4 6 3 10 6 E 9 0 0,0
15.12.2018 08:00:00 -6,6 -7,4 -2,2 0,3 1,2 4,4 3 1 9 5 NE 7 0 0,0
15.12.2018 07:00:00 -6,5 -7,7 -2,2 0,3 1,2 4,4 5 3 11 6 E 8 0 0,0
15.12.2018 06:00:00 -6,7 -7,5 -2,2 0,3 1,2 4,5 5 3 8 5 NE 7 0 0,0
15.12.2018 05:00:00 -6,9 -7,8 -2,1 0,3 1,2 4,5 2 1 6 3 N 10 0 0,0
15.12.2018 04:00:00 -7,1 -7,9 -2,1 0,3 1,2 4,5 0 0 6 4 N 10 0 0,0
15.12.2018 03:00:00 -7,1 -8,1 -2,0 0,3 1,2 4,5 5 3 9 5 E 8 0 0,0
15.12.2018 02:00:00 -6,5 -8,2 -2,0 0,3 1,2 4,5 7 4 15 8 ESE 11 0 0,0
15.12.2018 01:00:00 -6,4 -8,1 -2,0 0,3 1,2 4,5 7 4 15 8 E 12 0 0,0
15.12.2018 00:00:00 -6,3 -8,0 -1,9 0,3 1,2 4,5 9 5 20 11 SE 10 0 0,0
14.12.2018 23:00:00 -6,3 -7,7 -1,9 0,3 1,2 4,5 8 4 21 11 ESE 7 0 0,0
14.12.2018 22:00:00 -6,4 -7,7 -1,8 0,3 1,2 4,5 8 5 27 14 ESE 3,9 0 0,0
14.12.2018 21:00:00 -6,1 -7,6 -1,8 0,3 1,2 4,5 12 7 29 15 SE 3,7 0 0,0
14.12.2018 20:00:00 -6,3 -7,7 -1,8 0,3 1,2 4,5 14 8 30 16 ESE 1,6 0 0,0
14.12.2018 19:00:00 -6,3 -7,8 -1,8 0,3 1,2 4,5 14 8 36 19 SE 1,5 0 0,0
14.12.2018 18:00:00 -6,3 -7,9 -1,8 0,3 1,2 4,5 17 9 34 18 ESE 8 0 0,0
14.12.2018 17:00:00 -6,4 -7,9 -1,8 0,3 1,2 4,5 17 9 36 19 ESE 7 0 0,0
14.12.2018 16:00:00 -6,3 -7,9 -1,8 0,3 1,2 4,5 16 8 36 20 SE 9 0 0,0
14.12.2018 15:00:00 -6,2 -7,6 -1,9 0,3 1,2 4,5 18 10 34 18 ESE 6 0 0,0
14.12.2018 14:00:00 -6,0 -7,4 -1,9 0,3 1,2 4,5 15 8 35 19 ESE 8 0 0,0
14.12.2018 13:00:00 -6,1 -7,8 -2,0 0,4 1,2 4,5 19 10 37 20 ESE 5 2 0,0
14.12.2018 12:00:00 -6,1 -7,8 -2,1 0,4 1,2 4,5 17 9 32 18 ESE 6 0 0,0
14.12.2018 11:00:00 -6,4 -8,1 -2,2 0,4 1,2 4,5 20 11 41 22 ESE 3,8 0 0,0
14.12.2018 10:00:00 -6,5 -8,3 -2,2 0,4 1,2 4,5 23 12 39 21 ESE 8 1 0,0
14.12.2018 09:00:00 -6,6 -8,1 -2,3 0,4 1,2 4,5 16 9 36 19 ESE 13 0 0,0
14.12.2018 08:00:00 -6,8 -8,4 -2,3 0,4 1,2 4,5 18 10 39 21 SE 9 0 0,0
14.12.2018 07:00:00 -7,0 -8,5 -2,3 0,4 1,2 4,5 19 11 32 17 SE 0,1 0 0,0
14.12.2018 06:00:00 -7,5 -8,9 -2,4 0,4 1,2 4,5 17 9 35 19 ESE 0,1 0 0,0
14.12.2018 05:00:00 -7,1 -8,3 -2,5 0,4 1,2 4,5 17 9 30 16 SE 0,1 0 0,0
14.12.2018 04:00:00 -6,5 -7,7 -2,5 0,4 1,2 4,5 12 7 31 17 ESE 0,1 0 0,0
14.12.2018 03:00:00 -6,2 -7,3 -2,6 0,4 1,2 4,5 14 7 29 16 SE 0,1 0 0,0
14.12.2018 02:00:00 -6,5 -7,6 -2,6 0,4 1,2 4,5 16 9 31 17 SE 0,1 0 0,0
14.12.2018 01:00:00 -6,3 -7,5 -2,7 0,4 1,2 4,5 14 7 24 13 ESE 0,1 0 0,0
14.12.2018 00:00:00 -6,3 -7,5 -2,7 0,4 1,2 4,5 13 7 28 15 ESE 0,1 0 0,0
13.12.2018 23:00:00 -6,6 -8,1 -2,8 0,4 1,2 4,5 14 8 31 17 ESE 0,1 0 0,0
13.12.2018 22:00:00 -6,5 -7,8 -2,8 0,4 1,2 4,5 15 8 31 17 SE 0,1 0 0,0
13.12.2018 21:00:00 -6,5 -7,9 -2,9 0,4 1,2 4,5 18 10 31 17 ESE 0,1 0 0,0
13.12.2018 20:00:00 -6,5 -7,8 -2,9 0,4 1,2 4,5 13 7 23 12 ESE 0,1 0 0,0
13.12.2018 19:00:00 -6,3 -7,7 -2,9 0,4 1,2 4,5 16 8 29 15 ESE 0,1 0 0,0
13.12.2018 18:00:00 -6,8 -8,0 -2,9 0,4 1,2 4,5 13 7 23 12 ESE 0,1 0 0,0
13.12.2018 17:00:00 -7,3 -8,5 -2,9 0,4 1,2 4,6 8 4 19 10 ESE 0,1 0 0,0
13.12.2018 16:00:00 -6,7 -7,9 -2,9 0,4 1,2 4,6 13 7 18 10 E 0,1 0 0,0
13.12.2018 15:00:00 -6,0 -7,2 -2,9 0,4 1,2 4,6 10 6 21 11 ESE 0,1 0 0,0
13.12.2018 14:00:00 -6,3 -7,5 -3,0 0,4 1,2 4,6 10 5 22 12 ESE 0,1 8 0,0
13.12.2018 13:00:00 -5,9 -7,1 -3,0 0,4 1,2 4,6 14 8 28 15 ESE 0,1 26 0,0
13.12.2018 12:00:00 -5,8 -7,0 -3,0 0,4 1,2 4,6 16 9 30 16 ESE 0,1 40 0,0
13.12.2018 11:00:00 -5,6 -6,8 -2,9 0,4 1,2 4,6 16 9 27 14 SE 0,1 60 0,0
13.12.2018 10:00:00 -6,6 -7,9 -2,7 0,4 1,2 4,6 8 4 11 6 SE 0,1 46 0,0
13.12.2018 09:00:00 -8,6 -9,2 -2,5 0,4 1,2 4,6 3 2 7 4 SE 0,1 4 0,0
13.12.2018 08:00:00 -9,6 -10,7 -2,3 0,4 1,2 4,6 5 3 10 5 E 0,1 0 0,0
13.12.2018 07:00:00 -8,5 -9,5 -2,0 0,3 1,2 4,6 5 3 10 5 SE 0,1 0 0,0
13.12.2018 06:00:00 -8,7 -9,6 -1,8 0,3 1,2 4,6 5 3 11 6 SSE 0,1 0 0,0
13.12.2018 05:00:00 -7,2 -8,3 -1,6 0,3 1,2 4,6 10 5 17 9 E 0,1 0 0,0
13.12.2018 04:00:00 -7,1 -7,9 -1,3 0,3 1,2 4,6 9 5 14 8 E 0,1 0 0,0
13.12.2018 03:00:00 -6,6 -7,7 -1,3 0,3 1,2 4,6 9 5 15 8 E 0,1 0 0,0
13.12.2018 02:00:00 -6,0 -7,1 -1,0 0,3 1,2 4,6 8 4 13 7 E 0,1 0 0,0
13.12.2018 01:00:00 -6,0 -7,0 -0,9 0,3 1,2 4,6 9 5 15 8 E 0,1 0 0,0
13.12.2018 00:00:00 -5,8 -6,6 -0,8 0,3 1,2 4,6 6 4 17 9 ENE 0,1 0 0,0
12.12.2018 23:00:00 -4,7 -5,7 -0,8 0,3 1,2 4,6 8 5 21 11 E 0,1 0 0,0
12.12.2018 22:00:00 -4,5 -5,3 -0,7 0,3 1,3 4,6 9 5 23 12 E 0,1 0 0,0
12.12.2018 21:00:00 -4,4 -5,3 -0,7 0,3 1,3 4,6 9 5 21 11 E 0,1 0 0,0
12.12.2018 20:00:00 -4,2 -5,4 -0,7 0,3 1,3 4,6 11 6 24 13 E 0,1 0 0,0
12.12.2018 19:00:00 -3,7 -4,6 -0,6 0,4 1,3 4,6 11 6 28 15 ENE 0,1 0 0,5
12.12.2018 18:00:00 -3,4 -3,8 -0,6 0,4 1,3 4,6 8 4 24 13 NNE 0,1 0 0,0
12.12.2018 17:00:00 -3,4 -4,0 -0,6 0,4 1,3 4,6 9 5 21 12 NE 0,1 0 0,1
12.12.2018 16:00:00 -3,4 -4,2 -0,6 0,4 1,3 4,6 11 6 21 11 ENE 0,1 0 0,3
12.12.2018 15:00:00 -3,1 -3,8 -0,7 0,4 1,3 4,6 9 5 23 13 NE 0,1 0 0,2
12.12.2018 14:00:00 -2,6 -3,3 -0,7 0,4 1,3 4,6 7 4 25 13 NE 0,1 0 0,2
12.12.2018 13:00:00 -2,2 -2,9 -0,8 0,4 1,3 4,6 8 4 23 13 N 0,1 0 0,4
12.12.2018 12:00:00 -2,7 -3,0 -0,8 0,4 1,3 4,6 8 4 19 11 NNE 0,1 0 0,2
12.12.2018 11:00:00 -2,6 -3,2 -0,9 0,4 1,3 4,6 6 4 20 11 NNE 0,3 0 0,4
12.12.2018 10:00:00 -2,6 -3,1 -0,9 0,4 1,3 4,6 6 3 19 10 N 0,5 0 0,5
12.12.2018 09:00:00 -2,9 -3,5 -1,0 0,4 1,3 4,6 5 3 19 10 NNW 0,9 0 0,2
12.12.2018 08:00:00 -3,1 -3,6 -0,9 0,4 1,3 4,6 6 3 16 9 NNW 3,6 0 0,1
12.12.2018 07:00:00 -3,2 -3,9 -0,9 0,4 1,3 4,6 5 3 17 9 NNW 2,9 0 0,3
12.12.2018 06:00:00 -3,2 -4,0 -0,9 0,4 1,3 4,7 6 4 25 14 N 3,0 0 0,4
12.12.2018 05:00:00 -3,0 -3,7 -0,9 0,4 1,3 4,7 9 5 23 12 N 15 0 0,4
12.12.2018 04:00:00 -2,7 -3,2 -1,0 0,4 1,3 4,7 9 5 27 14 N 2,1 0 0,6
12.12.2018 03:00:00 -2,4 -2,9 -0,9 0,4 1,3 4,7 8 4 26 14 N 0,7 0 1,7
12.12.2018 02:00:00 -2,2 -2,7 -0,9 0,4 1,4 4,7 8 4 25 14 N 0,6 0 1,8
12.12.2018 01:00:00 -2,1 -2,7 -1,0 0,4 1,4 4,7 8 5 22 12 NNW 0,4 0 1,5
12.12.2018 00:00:00 -2,1 -2,6 -1,0 0,4 1,4 4,7 9 5 32 17 NNW 0,9 0 1,4
11.12.2018 23:00:00 -2,1 -2,6 -1,0 0,4 1,4 4,7 8 4 33 18 NNW 0,8 0 1,4
11.12.2018 22:00:00 -1,9 -2,5 -1,0 0,4 1,4 4,7 8 4 26 14 NNW 0,9 0 2,1
11.12.2018 21:00:00 -1,8 -2,2 -1,1 0,4 1,4 4,7 7 4 27 15 NW 0,9 0 1,3
11.12.2018 20:00:00 -1,8 -2,3 -1,1 0,4 1,4 4,7 6 4 23 12 NNW 0,8 0 1,5
11.12.2018 19:00:00 -1,9 -2,4 -1,1 0,4 1,4 4,7 6 3 24 13 NW 1,6 0 1,3
11.12.2018 18:00:00 -1,9 -2,1 -1,2 0,4 1,4 4,7 6 3 30 16 NW 1,4 0 1,0
11.12.2018 17:00:00 -1,9 -2,3 -1,2 0,4 1,4 4,7 10 5 31 17 NW 1,2 0 1,6
11.12.2018 16:00:00 -1,9 -2,3 -1,3 0,4 1,4 4,7 10 5 37 20 NW 0,8 0 2,5
11.12.2018 15:00:00 -1,9 -2,3 -1,3 0,5 1,4 4,7 10 6 34 18 NW 1,1 0 2,0
11.12.2018 14:00:00 -1,9 -2,3 -1,4 0,5 1,4 4,7 9 5 33 18 NW 1,1 0 1,5
11.12.2018 13:00:00 -1,9 -2,4 -1,4 0,5 1,5 4,7 10 6 33 18 NW 1,3 0 2,1
11.12.2018 12:00:00 -1,9 -2,4 -1,5 0,5 1,5 4,7 12 6 38 20 NW 1,8 0 2,2
11.12.2018 11:00:00 -1,9 -2,5 -1,8 0,5 1,5 4,7 12 6 39 21 NW 4,9 0 0,4
11.12.2018 10:00:00 -1,9 -2,2 -1,6 0,5 1,5 4,7 13 7 40 21 NW 3,9 0 0,2
11.12.2018 09:00:00 -1,9 -2,4 -1,9 0,5 1,5 4,7 16 9 44 24 NW 8 0 0,0
11.12.2018 08:00:00 -1,9 -2,2 -1,9 0,5 1,5 4,7 11 6 45 25 NNW 3,9 0 0,5
11.12.2018 07:00:00 -1,9 -2,2 -1,9 0,5 1,5 4,7 10 6 35 19 NW 1,2 0 1,5
11.12.2018 06:00:00 -1,8 -2,2 -1,9 0,5 1,5 4,7 13 7 38 21 NW 0,4 0 2,9

tt = Température de l'air
td = dewpoint
tt 5cm = Température de l'air 5cm
tt -5cm = Température de l'air -5cm
tt -20cm = Température de l'air -20cm
tt -100cm = Température de l'air -100cm
ff = Vitesse du vent
fx = gusts
dd = Direction du vent
vv = visibility
sd = Ensoleillement
rr = Quantités de précipitations

stations d'obs. à proximité